createdAt,value
2022-10-22T00:07:30.427Z,13.03
2022-10-22T00:14:21.964Z,13.51
2022-10-22T00:19:41.105Z,13.69
2022-10-22T00:25:00.650Z,13.86
2022-10-22T00:31:34.820Z,13.98
2022-10-22T00:35:38.880Z,13.85
2022-10-22T00:40:57.720Z,13.88
2022-10-22T00:46:16.891Z,13.91
2022-10-22T00:51:44.718Z,13.88
2022-10-22T00:56:55.874Z,13.94
2022-10-22T01:03:29.999Z,13.94
2022-10-22T01:12:54.960Z,13.94
2022-10-22T01:18:12.656Z,13.89
2022-10-22T01:23:32.037Z,13.83
2022-10-22T01:28:51.411Z,13.79
2022-10-22T01:34:10.171Z,13.71
2022-10-22T01:39:29.035Z,13.58
2022-10-22T01:44:47.885Z,13.51
2022-10-22T01:50:07.076Z,13.46
2022-10-22T01:56:41.247Z,13.38
2022-10-22T02:00:46.353Z,13.36
2022-10-22T02:06:05.862Z,13.38
2022-10-22T02:11:22.972Z,13.6
2022-10-22T02:16:41.808Z,13.54
2022-10-22T02:22:00.581Z,13.54
2022-10-22T02:22:25.633Z,13.71
2022-10-22T02:27:45.149Z,13.47
2022-10-22T02:33:04.708Z,13.43
2022-10-22T02:38:22.988Z,13.43
2022-10-22T02:43:43.191Z,13.44
2022-10-22T02:49:01.609Z,13.38
2022-10-22T02:54:20.747Z,13.27
2022-10-22T02:59:41.090Z,13.27
2022-10-22T03:04:59.400Z,13.26
2022-10-22T03:10:18.622Z,13.17
2022-10-22T03:15:38.076Z,13.13
2022-10-22T03:20:57.612Z,13.17
2022-10-22T03:26:17.638Z,13.06
2022-10-22T03:32:51.807Z,13.11
2022-10-22T03:36:57.878Z,13.09
2022-10-22T03:42:15.321Z,13.11
2022-10-22T03:47:35.715Z,13.13
2022-10-22T03:52:53.797Z,13.04
2022-10-22T03:58:12.785Z,12.99
2022-10-22T04:03:32.359Z,12.88
2022-10-22T04:08:51.697Z,12.86
2022-10-22T04:14:11.016Z,12.79
2022-10-22T04:19:30.065Z,12.78
2022-10-22T04:24:48.851Z,12.76
2022-10-22T04:30:08.418Z,12.79
2022-10-22T04:35:27.306Z,12.8
2022-10-22T04:40:45.371Z,12.73
2022-10-22T04:46:04.954Z,12.68
2022-10-22T04:51:25.380Z,12.56
2022-10-22T04:56:45.018Z,12.44
2022-10-22T05:02:13.094Z,12.17
2022-10-22T05:07:23.193Z,11.98
2022-10-22T05:13:57.346Z,12.04
2022-10-22T05:18:01.213Z,12.2
2022-10-22T05:23:20.022Z,12.28
2022-10-22T05:28:39.534Z,12.17
2022-10-22T05:35:13.676Z,12.01
2022-10-22T05:39:28.313Z,11.89
2022-10-22T05:44:36.694Z,11.93
2022-10-22T05:49:56.476Z,11.91
2022-10-22T05:55:15.122Z,11.93
2022-10-22T06:00:34.254Z,11.89
2022-10-22T06:05:53.439Z,11.59
2022-10-22T06:11:20.863Z,11.43
2022-10-22T06:16:32.318Z,11.29
2022-10-22T06:21:52.152Z,11.4
2022-10-22T06:27:11.368Z,11.58
2022-10-22T06:32:30.665Z,11.77
2022-10-22T06:37:49.577Z,11.95
2022-10-22T06:43:08.837Z,12.1
2022-10-22T06:48:27.842Z,12.2
2022-10-22T06:53:47.318Z,12.08
2022-10-22T06:59:06.941Z,11.94
2022-10-22T07:05:41.071Z,11.94
2022-10-22T07:15:17.978Z,12.34
2022-10-22T07:20:25.469Z,12.35
2022-10-22T07:25:44.845Z,12.35
2022-10-22T07:31:03.750Z,12.37
2022-10-22T07:36:22.605Z,12.56
2022-10-22T07:41:42.334Z,12.96
2022-10-22T07:47:01.197Z,13.5
2022-10-22T07:52:20.459Z,13.51
2022-10-22T07:57:40.092Z,13.55
2022-10-22T08:02:58.871Z,13.78
2022-10-22T08:08:18.499Z,13.78
2022-10-22T08:13:41.587Z,13.78
2022-10-22T08:18:57.220Z,13.82
2022-10-22T08:24:15.299Z,13.86
2022-10-22T08:29:34.345Z,14.53
2022-10-22T08:34:53.879Z,15.14
2022-10-22T08:40:13.298Z,15.55
2022-10-22T08:45:32.992Z,15.77
2022-10-22T08:50:52.443Z,15.76
2022-10-22T08:56:11.763Z,15.94
2022-10-22T09:02:45.952Z,16.51
2022-10-22T09:07:02.445Z,16.86
2022-10-22T09:12:09.811Z,17.46
2022-10-22T09:17:29.315Z,17.54
2022-10-22T09:22:48.788Z,17.61
2022-10-22T09:31:21.855Z,17.7
2022-10-22T09:33:27.147Z,18.09
2022-10-22T09:44:05.950Z,18.12
2022-10-22T09:49:23.472Z,18.16
2022-10-22T09:54:42.784Z,18.57
2022-10-22T10:00:01.904Z,18.43
2022-10-22T10:05:21.359Z,18.57
2022-10-22T10:10:40.100Z,18.87
2022-10-22T10:15:59.737Z,19.17
2022-10-22T10:21:18.795Z,19.32
2022-10-22T10:27:52.949Z,19.18
2022-10-22T10:31:57.385Z,18.93
2022-10-22T10:37:16.341Z,18.9
2022-10-22T10:42:35.530Z,18.6
2022-10-22T10:47:54.268Z,18.29
2022-10-22T10:53:13.004Z,18.53
2022-10-22T10:58:32.457Z,18.77
2022-10-22T11:05:06.632Z,18.98
2022-10-22T11:09:10.879Z,19.1
2022-10-22T11:14:30.183Z,19.32
2022-10-22T11:19:52.434Z,19.39
2022-10-22T11:25:07.699Z,19.39
2022-10-22T11:30:27.776Z,19.08
2022-10-22T11:35:46.367Z,18.77
2022-10-22T11:41:06.095Z,18.62
2022-10-22T11:46:24.247Z,18.74
2022-10-22T11:51:43.784Z,19.54
2022-10-22T11:57:03.386Z,19.62
2022-10-22T12:02:22.224Z,19.59
2022-10-22T12:07:41.090Z,19.69
2022-10-22T12:13:00.224Z,19.83
2022-10-22T12:19:34.437Z,20.09
2022-10-22T12:23:39.071Z,20.07
2022-10-22T12:30:37.656Z,20.16
2022-10-22T12:34:19.061Z,20.2
2022-10-22T12:39:37.488Z,20.27
2022-10-22T12:44:56.702Z,20.34
2022-10-22T12:50:15.945Z,20.44
2022-10-22T12:55:34.998Z,20.59
2022-10-22T13:00:53.742Z,20.78
2022-10-22T13:07:27.826Z,20.95
2022-10-22T13:11:44.366Z,20.96
2022-10-22T13:16:53.362Z,19.92
2022-10-22T13:22:11.530Z,19.03
2022-10-22T13:27:30.281Z,18.56
2022-10-22T13:32:49.262Z,18.42
2022-10-22T13:39:23.445Z,18.67
2022-10-22T13:43:38.812Z,18.77
2022-10-22T13:48:45.851Z,18.7
2022-10-22T13:54:05.071Z,18.61
2022-10-22T13:59:23.801Z,18.54
2022-10-22T14:04:43.209Z,18.53
2022-10-22T14:10:02.016Z,18.54
2022-10-22T14:16:36.218Z,18.57
2022-10-22T14:20:42.086Z,18.7
2022-10-22T14:26:00.770Z,19.04
2022-10-22T14:31:18.681Z,19.2
2022-10-22T14:36:37.568Z,19.24
2022-10-22T14:41:56.436Z,19.51
2022-10-22T14:47:15.948Z,19.68
2022-10-22T14:52:35.467Z,19.94
2022-10-22T14:57:55.055Z,19.96
2022-10-22T15:03:14.619Z,19.92
2022-10-22T15:08:33.742Z,19.96
2022-10-22T15:15:07.877Z,19.87
2022-10-22T15:19:24.421Z,19.79
2022-10-22T15:24:31.970Z,19.62
2022-10-22T15:29:51.313Z,18.93
2022-10-22T15:35:10.181Z,18.21
2022-10-22T15:40:29.609Z,17.66
2022-10-22T15:45:57.004Z,17.2
2022-10-22T15:51:05.863Z,16.92
2022-10-22T15:56:33.719Z,16.79
2022-10-22T16:01:43.764Z,16.62
2022-10-22T16:07:03.141Z,16.46
2022-10-22T16:12:22.285Z,16.25
2022-10-22T16:17:41.672Z,15.96
2022-10-22T16:23:01.611Z,15.62
2022-10-22T16:28:21.157Z,15.29
2022-10-22T16:33:42.903Z,15.14
2022-10-22T16:39:00.034Z,14.84
2022-10-22T16:44:18.921Z,14.46
2022-10-22T16:49:38.433Z,14.09
2022-10-22T16:54:58.151Z,13.79
2022-10-22T17:00:17.797Z,13.69
2022-10-22T17:05:36.806Z,13.69
2022-10-22T17:10:56.333Z,13.64
2022-10-22T17:16:15.387Z,13.57
2022-10-22T17:21:34.837Z,13.38
2022-10-22T17:26:54.912Z,13.2
2022-10-22T17:33:29.092Z,13.1
2022-10-22T17:37:34.448Z,13.04
2022-10-22T17:42:51.903Z,12.93
2022-10-22T17:48:11.255Z,12.85
2022-10-22T17:53:30.912Z,12.58
2022-10-22T17:58:50.859Z,12.56
2022-10-22T18:04:08.825Z,12.37
2022-10-22T18:09:28.735Z,12.05
2022-10-22T18:14:47.664Z,11.86
2022-10-22T18:20:06.625Z,11.83
2022-10-22T18:30:45.169Z,11.66
2022-10-22T18:36:04.057Z,11.55
2022-10-22T18:41:23.690Z,11.42
2022-10-22T18:46:44.049Z,11.43
2022-10-22T18:52:02.785Z,11.35
2022-10-22T18:57:21.991Z,11.12
2022-10-22T19:02:41.564Z,11.15
2022-10-22T19:08:00.213Z,11.01
2022-10-22T19:13:19.508Z,10.87
2022-10-22T19:18:39.063Z,10.85
2022-10-22T19:23:58.711Z,10.72
2022-10-22T19:29:16.810Z,10.64
2022-10-22T19:34:46.309Z,10.6
2022-10-22T19:39:55.303Z,10.51
2022-10-22T19:45:14.919Z,10.43
2022-10-22T19:51:49.035Z,10.39
2022-10-22T19:55:53.677Z,10.33
2022-10-22T20:01:12.880Z,10.3
2022-10-22T20:06:31.253Z,10.32
2022-10-22T20:11:50.805Z,10.29
2022-10-22T20:17:09.011Z,10.29
2022-10-22T20:18:17.222Z,10.36
2022-10-22T20:23:03.225Z,10.24
2022-10-22T20:28:22.472Z,10.14
2022-10-22T20:33:42.010Z,10.08
2022-10-22T20:39:01.089Z,9.97
2022-10-22T20:44:20.684Z,9.95
2022-10-22T20:49:39.574Z,9.88
2022-10-22T20:54:58.484Z,9.83
2022-10-22T21:00:18.149Z,9.82
2022-10-22T21:05:37.509Z,9.89
2022-10-22T21:10:57.251Z,9.83
2022-10-22T21:16:16.233Z,9.77
2022-10-22T21:21:35.735Z,9.74
2022-10-22T21:26:53.942Z,9.68
2022-10-22T21:32:12.921Z,9.55
2022-10-22T21:37:32.225Z,9.52
2022-10-22T21:42:51.779Z,9.5
2022-10-22T21:49:25.974Z,9.47
2022-10-22T21:53:30.829Z,9.47
2022-10-22T21:58:50.215Z,9.52
2022-10-22T22:07:23.316Z,9.5
2022-10-22T22:14:48.681Z,9.37
2022-10-22T22:20:07.507Z,9.3
2022-10-22T22:25:27.066Z,9.17
2022-10-22T22:30:44.696Z,9.3
2022-10-22T22:37:43.509Z,9.52
2022-10-22T22:41:23.049Z,9.31
2022-10-22T22:46:42.245Z,9.14
2022-10-22T22:52:01.389Z,9.22
2022-10-22T22:57:21.011Z,9.24
2022-10-22T23:02:40.260Z,9.09
2022-10-22T23:07:58.678Z,8.89
2022-10-22T23:13:18.115Z,8.75
2022-10-22T23:18:37.267Z,8.64
2022-10-22T23:23:57.744Z,8.63
2022-10-22T23:29:16.000Z,8.75
2022-10-22T23:34:36.186Z,8.93
2022-10-22T23:39:55.194Z,9.01
2022-10-22T23:45:14.719Z,8.96
2022-10-22T23:50:33.762Z,8.79
2022-10-22T23:55:52.619Z,8.6
